Airfield :
LOGIN :

Register | Disclaimer

   EN    FR    IT 

 










Legend :    VFR   Marginal VFR   IFR   Intensive IFR   Very Intensive IFR
Visi :
Ceiling :
>= 8 km
>= 3000ft
5 to 8 km
1000 to 3000 ft
1500m to 5 km
500 to 1000 ft
800 to 1500m
200 to 500 ft
< 800m
< 200 ft
Symbols :   Thunderstorms  Fog  Heavy snow  Heavy precipitations  Wind > 20 kt
SIGMETs :     Misc.  Thunderstorms  Icing  Turbulence  Mountain Waves  Volcanic Ashes






- Airport Elevation : 359 ft
- IATA code : BVA


LFOB - Beauvais

CURRENT METAR :
  • 251900Z AUTO VRB01KT 9999 SCT045 06/05 Q1018 BECMG 3000 BR

EXPIRED METARs :
  • 251830Z AUTO VRB03KT 9999 BKN041 06/05 Q1017 BECMG 3000 BR
  • 251800Z AUTO VRB02KT 9999 FEW041 05/04 Q1017 BECMG 3000 BR
  • 251730Z AUTO 15003KT CAVOK 06/05 Q1017 NOSIG
  • 251700Z AUTO 12006KT 9999 SCT035 06/05 Q1017 NOSIG
  • 251630Z AUTO 10005KT 9999 BKN036 BKN240 07/06 Q1017 NOSIG

TAF TAF LFOB
Valid from the 25 at 18:00 until the 26 at 18:00 UTC


251700Z 2518/2618 12005KT 7000 NSC
BECMG 2519/2522 3000 BR
BECMG 2522/2601 0400 FG VV///
PROB40 2600/2609 0200
BECMG 2610/2612 2000 BR OVC002
BECMG 2612/2614 CAVOK
ATIS : +33 3 44 11 49 28



MET'MAP, your aeronautical weather chart ! - Copyright ORBIFLY December 2007 - Disclaimer

ORBIFLY MET'MAP TEAM :

Programming & Development : Alexandra Zaïnal
Concept & original design : Baudouin d'Aumeries
Assistance for programming : Marc-Olivier Méhu
Technical & hardware support : Manuel Goepfert

Contact : metmap@orbifly.com




SOURCES & CREDITS :

   NOAA